createdAt,value
2022-07-30T00:01:45.404Z,5.20
2022-07-30T00:04:12.206Z,5.35
2022-07-30T00:06:39.912Z,5.25
2022-07-30T00:09:06.864Z,4.90
2022-07-30T00:11:33.706Z,5.20
2022-07-30T00:14:00.681Z,5.18
2022-07-30T00:16:27.837Z,4.80
2022-07-30T00:18:54.738Z,5.07
2022-07-30T00:21:35.666Z,4.82
2022-07-30T00:24:06.845Z,4.68
2022-07-30T00:26:33.681Z,5.10
2022-07-30T00:29:00.740Z,4.82
2022-07-30T00:31:28.936Z,4.75
2022-07-30T00:33:55.772Z,4.95
2022-07-30T00:36:23.307Z,4.70
2022-07-30T00:38:50.327Z,4.20
2022-07-30T00:41:17.146Z,4.80
2022-07-30T00:43:44.295Z,4.93
2022-07-30T00:46:11.445Z,4.95
2022-07-30T00:48:38.715Z,4.97
2022-07-30T00:51:05.697Z,4.70
2022-07-30T00:53:33.698Z,5.03
2022-07-30T00:56:00.817Z,4.85
2022-07-30T00:58:28.275Z,4.60
2022-07-30T01:00:55.239Z,4.75
2022-07-30T01:03:22.390Z,4.78
2022-07-30T01:05:50.038Z,5.07
2022-07-30T01:08:16.993Z,4.90
2022-07-30T01:10:44.690Z,5.00
2022-07-30T01:13:11.617Z,4.95
2022-07-30T01:15:38.797Z,5.10
2022-07-30T01:18:07.150Z,5.30
2022-07-30T01:20:38.843Z,5.15
2022-07-30T01:23:15.331Z,5.03
2022-07-30T01:26:04.968Z,5.60
2022-07-30T01:28:37.847Z,5.45
2022-07-30T01:31:07.116Z,5.68
2022-07-30T01:33:38.723Z,5.28
2022-07-30T01:36:09.503Z,5.13
2022-07-30T01:38:37.070Z,5.03
2022-07-30T01:41:04.841Z,5.20
2022-07-30T01:43:33.373Z,5.32
2022-07-30T01:46:02.820Z,5.40
2022-07-30T01:48:32.111Z,4.85
2022-07-30T01:51:03.565Z,5.75
2022-07-30T01:53:34.077Z,5.40
2022-07-30T01:56:02.067Z,4.88
2022-07-30T01:58:33.205Z,5.13
2022-07-30T02:01:12.112Z,5.32
2022-07-30T02:03:39.685Z,5.60
2022-07-30T02:06:19.883Z,5.43
2022-07-30T02:08:55.653Z,5.50
2022-07-30T02:14:49.861Z,5.45
2022-07-30T02:17:21.731Z,5.82
2022-07-30T02:19:57.929Z,5.82
2022-07-30T02:22:26.439Z,5.72
2022-07-30T02:24:53.791Z,5.75
2022-07-30T02:27:26.529Z,5.50
2022-07-30T02:29:54.921Z,5.13
2022-07-30T02:32:23.647Z,5.43
2022-07-30T02:34:59.261Z,5.22
2022-07-30T02:37:41.665Z,5.65
2022-07-30T02:40:12.715Z,5.18
2022-07-30T02:42:39.747Z,5.75
2022-07-30T02:45:07.455Z,5.75
2022-07-30T02:47:35.964Z,5.93
2022-07-30T02:50:05.999Z,5.97
2022-07-30T02:52:33.543Z,5.22
2022-07-30T02:55:01.178Z,5.90
2022-07-30T02:57:29.550Z,5.82
2022-07-30T02:59:57.365Z,5.50
2022-07-30T03:02:29.791Z,5.57
2022-07-30T03:04:59.208Z,5.55
2022-07-30T03:07:27.587Z,5.80
2022-07-30T03:09:56.136Z,5.93
2022-07-30T03:12:25.444Z,6.25
2022-07-30T03:14:52.260Z,5.60
2022-07-30T03:17:19.602Z,5.72
2022-07-30T03:19:48.758Z,5.85
2022-07-30T03:22:18.039Z,5.43
2022-07-30T03:24:46.060Z,5.60
2022-07-30T03:27:13.842Z,5.28
2022-07-30T03:29:41.904Z,5.47
2022-07-30T03:32:09.230Z,5.10
2022-07-30T03:34:42.095Z,5.05
2022-07-30T03:37:11.040Z,5.50
2022-07-30T03:39:39.133Z,5.38
2022-07-30T03:42:07.350Z,5.30
2022-07-30T03:44:35.335Z,5.97
2022-07-30T03:47:06.172Z,5.65
2022-07-30T03:49:38.843Z,5.50
2022-07-30T03:52:06.434Z,5.47
2022-07-30T03:54:35.467Z,5.40
2022-07-30T03:57:11.457Z,5.53
2022-07-30T03:59:45.118Z,5.85
2022-07-30T04:02:12.966Z,5.75
2022-07-30T04:05:05.292Z,5.47
2022-07-30T04:07:32.941Z,5.70
2022-07-30T04:09:59.984Z,5.80
2022-07-30T04:12:45.956Z,5.63
2022-07-30T04:16:08.815Z,5.68
2022-07-30T04:18:03.304Z,5.43
2022-07-30T04:20:34.934Z,5.60
2022-07-30T04:23:03.271Z,5.32
2022-07-30T04:25:30.855Z,4.88
2022-07-30T04:28:01.907Z,4.93
2022-07-30T04:30:33.346Z,4.60
2022-07-30T04:33:00.635Z,5.10
2022-07-30T04:35:51.056Z,4.80
2022-07-30T04:38:25.714Z,4.90
2022-07-30T04:40:52.688Z,5.28
2022-07-30T04:43:19.565Z,4.88
2022-07-30T04:45:46.741Z,4.75
2022-07-30T04:48:13.607Z,4.82
2022-07-30T04:51:01.766Z,4.40
2022-07-30T04:53:29.753Z,4.80
2022-07-30T04:56:00.651Z,4.50
2022-07-30T04:58:29.936Z,4.60
2022-07-30T05:00:58.318Z,4.80
2022-07-30T05:03:29.975Z,4.18
2022-07-30T05:05:57.836Z,3.97
2022-07-30T05:08:27.131Z,5.18
2022-07-30T05:10:54.977Z,4.70
2022-07-30T05:13:22.406Z,4.90
2022-07-30T05:15:55.256Z,4.22
2022-07-30T05:18:22.492Z,4.50
2022-07-30T05:20:49.301Z,4.32
2022-07-30T05:23:29.545Z,4.20
2022-07-30T05:26:04.572Z,4.20
2022-07-30T05:28:36.853Z,4.22
2022-07-30T05:31:08.708Z,3.78
2022-07-30T05:33:40.735Z,4.30
2022-07-30T05:36:10.748Z,4.15
2022-07-30T05:38:39.036Z,3.80
2022-07-30T05:41:32.047Z,4.28
2022-07-30T05:44:26.239Z,4.18
2022-07-30T05:46:53.318Z,4.55
2022-07-30T05:49:20.470Z,4.25
2022-07-30T05:51:47.406Z,4.72
2022-07-30T05:54:17.097Z,4.28
2022-07-30T05:57:22.496Z,4.43
2022-07-30T05:59:50.387Z,4.40
2022-07-30T06:02:40.743Z,4.05
2022-07-30T06:05:08.319Z,3.95
2022-07-30T06:07:35.536Z,4.63
2022-07-30T06:10:04.392Z,3.97
2022-07-30T06:12:31.281Z,3.92
2022-07-30T06:14:58.877Z,4.50
2022-07-30T06:17:29.820Z,3.65
2022-07-30T06:20:05.158Z,4.13
2022-07-30T06:22:42.124Z,4.00
2022-07-30T06:25:18.514Z,3.80
2022-07-30T06:27:45.851Z,3.60
2022-07-30T06:30:13.557Z,4.00
2022-07-30T06:32:43.567Z,3.63
2022-07-30T06:35:10.471Z,4.13
2022-07-30T06:37:59.580Z,3.50
2022-07-30T06:40:26.439Z,3.92
2022-07-30T06:43:07.827Z,3.90
2022-07-30T06:45:43.753Z,3.58
2022-07-30T06:48:23.302Z,3.75
2022-07-30T06:50:50.535Z,4.53
2022-07-30T06:53:17.524Z,4.10
2022-07-30T06:56:03.182Z,4.20
2022-07-30T06:58:40.240Z,4.13
2022-07-30T07:01:36.604Z,4.13
2022-07-30T07:04:04.349Z,4.32
2022-07-30T07:06:32.087Z,4.40
2022-07-30T07:08:59.380Z,4.25
2022-07-30T07:11:34.473Z,3.90
2022-07-30T07:14:06.464Z,4.35
2022-07-30T07:16:35.330Z,4.07
2022-07-30T07:19:59.511Z,4.53
2022-07-30T07:22:15.424Z,4.43
2022-07-30T07:24:44.034Z,3.92
2022-07-30T07:27:15.881Z,3.90
2022-07-30T07:30:04.994Z,4.20
2022-07-30T07:32:33.411Z,3.95
2022-07-30T07:35:00.333Z,4.22
2022-07-30T07:37:27.467Z,4.10
2022-07-30T07:39:55.175Z,4.07
2022-07-30T07:42:22.668Z,3.90
2022-07-30T07:44:50.361Z,4.40
2022-07-30T07:47:18.271Z,4.03
2022-07-30T07:49:57.957Z,4.20
2022-07-30T07:52:25.087Z,4.05
2022-07-30T07:54:52.172Z,4.20
2022-07-30T07:57:20.290Z,4.43
2022-07-30T07:59:47.963Z,3.90
2022-07-30T08:02:24.236Z,4.63
2022-07-30T08:05:05.965Z,4.00
2022-07-30T08:07:53.855Z,4.45
2022-07-30T08:10:39.610Z,4.20
2022-07-30T08:13:52.683Z,4.25
2022-07-30T08:16:30.535Z,4.50
2022-07-30T08:19:26.536Z,4.10
2022-07-30T08:22:17.036Z,4.30
2022-07-30T08:24:44.949Z,4.28
2022-07-30T08:27:11.973Z,4.63
2022-07-30T08:29:38.919Z,4.40
2022-07-30T08:32:06.092Z,4.70
2022-07-30T08:34:36.074Z,4.65
2022-07-30T08:37:03.946Z,4.65
2022-07-30T08:39:31.033Z,4.50
2022-07-30T08:41:58.467Z,4.47
2022-07-30T08:44:26.424Z,4.30
2022-07-30T08:46:56.332Z,4.20
2022-07-30T08:49:44.171Z,4.10
2022-07-30T08:52:11.490Z,4.50
2022-07-30T08:54:45.810Z,4.90
2022-07-30T08:57:13.188Z,4.13
2022-07-30T08:59:59.598Z,4.43
2022-07-30T09:02:31.253Z,4.30
2022-07-30T09:05:04.109Z,4.20
2022-07-30T09:07:33.567Z,4.20
2022-07-30T09:10:01.911Z,4.93
2022-07-30T09:12:35.057Z,4.40
2022-07-30T09:15:15.623Z,4.28
2022-07-30T09:17:53.325Z,4.60
2022-07-30T09:20:22.867Z,4.28
2022-07-30T09:22:52.817Z,4.90
2022-07-30T09:25:44.517Z,4.55
2022-07-30T09:28:33.949Z,5.00
2022-07-30T09:31:22.332Z,4.45
2022-07-30T09:34:24.872Z,4.30
2022-07-30T09:37:18.362Z,4.13
2022-07-30T09:40:23.876Z,4.40
2022-07-30T09:43:17.877Z,4.18
2022-07-30T09:45:57.227Z,3.58
2022-07-30T09:48:27.242Z,3.78
2022-07-30T09:50:55.374Z,4.18
2022-07-30T09:53:24.968Z,4.00
2022-07-30T09:55:52.467Z,3.70
2022-07-30T09:58:27.106Z,4.07
2022-07-30T10:01:00.384Z,3.65
2022-07-30T10:03:56.731Z,3.80
2022-07-30T10:06:52.407Z,3.88
2022-07-30T10:09:45.156Z,3.90
2022-07-30T10:12:14.897Z,4.18
2022-07-30T10:14:47.554Z,4.18
2022-07-30T10:17:17.980Z,4.32
2022-07-30T10:20:08.899Z,4.13
2022-07-30T10:23:09.343Z,3.92
2022-07-30T10:25:49.198Z,4.40
2022-07-30T10:28:40.779Z,4.40
2022-07-30T10:31:46.484Z,4.05
2022-07-30T10:33:55.172Z,4.15
2022-07-30T10:36:23.854Z,4.10
2022-07-30T10:38:52.813Z,4.43
2022-07-30T10:41:42.887Z,4.25
2022-07-30T10:44:41.380Z,4.15
2022-07-30T10:47:10.708Z,4.35
2022-07-30T10:49:41.294Z,4.63
2022-07-30T10:52:10.581Z,4.80
2022-07-30T10:54:45.431Z,4.68
2022-07-30T10:57:31.673Z,4.45
2022-07-30T11:00:00.494Z,4.75
2022-07-30T11:02:34.872Z,4.30
2022-07-30T11:05:18.704Z,4.13
2022-07-30T11:08:36.312Z,4.18
2022-07-30T11:12:04.967Z,4.15
2022-07-30T11:16:51.305Z,4.25
2022-07-30T11:19:55.315Z,4.32
2022-07-30T11:22:33.078Z,4.55
2022-07-30T11:25:00.348Z,4.82
2022-07-30T11:27:41.358Z,4.50
2022-07-30T11:30:18.171Z,4.22
2022-07-30T11:33:18.565Z,4.43
2022-07-30T11:36:10.571Z,4.20
2022-07-30T11:38:57.171Z,4.22
2022-07-30T11:41:26.975Z,3.90
2022-07-30T11:44:29.886Z,4.40
2022-07-30T11:46:56.764Z,4.60
2022-07-30T11:49:23.760Z,4.35
2022-07-30T11:51:50.988Z,4.15
2022-07-30T11:54:18.471Z,3.95
2022-07-30T11:56:53.300Z,4.28
2022-07-30T11:59:20.179Z,4.50
2022-07-30T12:02:00.152Z,4.45
2022-07-30T12:04:27.380Z,4.65
2022-07-30T12:06:54.245Z,4.15
2022-07-30T12:09:27.760Z,4.00
2022-07-30T12:11:55.862Z,3.90
2022-07-30T12:14:23.042Z,3.90
2022-07-30T12:16:51.696Z,3.40
2022-07-30T12:19:18.651Z,3.72
2022-07-30T12:21:49.442Z,3.92
2022-07-30T12:24:25.236Z,3.90
2022-07-30T12:26:52.114Z,3.63
2022-07-30T12:29:19.093Z,3.92
2022-07-30T12:31:46.544Z,3.55
2022-07-30T12:34:24.833Z,3.70
2022-07-30T12:36:51.958Z,3.83
2022-07-30T12:39:21.352Z,3.60
2022-07-30T12:41:49.868Z,3.47
2022-07-30T12:44:38.983Z,3.42
2022-07-30T12:47:07.608Z,3.20
2022-07-30T12:49:36.562Z,3.22
2022-07-30T12:52:27.740Z,3.58
2022-07-30T12:54:58.804Z,3.58
2022-07-30T12:57:25.893Z,3.13
2022-07-30T13:00:07.021Z,3.60
2022-07-30T13:02:34.615Z,3.50
2022-07-30T13:05:11.503Z,3.38
2022-07-30T13:07:59.321Z,3.70
2022-07-30T13:10:31.183Z,3.60
2022-07-30T13:12:59.330Z,3.30
2022-07-30T13:15:26.535Z,3.53
2022-07-30T13:17:53.585Z,3.30
2022-07-30T13:20:21.041Z,3.17
2022-07-30T13:22:48.177Z,3.20
2022-07-30T13:25:15.111Z,3.03
2022-07-30T13:27:41.999Z,3.45
2022-07-30T13:30:09.772Z,3.33
2022-07-30T13:32:36.701Z,3.10
2022-07-30T13:35:03.960Z,3.05
2022-07-30T13:37:38.359Z,3.17
2022-07-30T13:40:06.611Z,2.97
2022-07-30T13:42:33.467Z,3.08
2022-07-30T13:45:00.728Z,3.08
2022-07-30T13:47:27.566Z,2.90
2022-07-30T13:49:54.498Z,3.00
2022-07-30T13:52:21.431Z,3.03
2022-07-30T13:54:50.767Z,2.90
2022-07-30T13:57:18.029Z,2.80
2022-07-30T13:59:44.871Z,2.72
2022-07-30T14:02:11.828Z,2.60
2022-07-30T14:04:38.683Z,2.97
2022-07-30T14:07:05.749Z,2.80
2022-07-30T14:09:33.123Z,2.83
2022-07-30T14:12:11.551Z,2.60
2022-07-30T14:14:38.506Z,2.78
2022-07-30T14:17:05.493Z,2.58
2022-07-30T14:19:32.369Z,2.83
2022-07-30T14:21:59.261Z,2.65
2022-07-30T14:24:26.155Z,2.70
2022-07-30T14:27:00.483Z,2.58
2022-07-30T14:29:27.887Z,2.85
2022-07-30T14:31:55.419Z,2.85
2022-07-30T14:34:22.596Z,2.45
2022-07-30T14:36:49.523Z,2.33
2022-07-30T14:39:16.383Z,2.70
2022-07-30T14:41:43.241Z,2.30
2022-07-30T14:44:12.269Z,2.55
2022-07-30T14:46:51.483Z,2.30
2022-07-30T14:49:20.887Z,2.30
2022-07-30T14:51:47.859Z,2.40
2022-07-30T14:54:14.783Z,2.63
2022-07-30T14:56:41.895Z,2.17
2022-07-30T14:59:08.824Z,2.50
2022-07-30T15:01:35.766Z,2.42
2022-07-30T15:04:02.930Z,2.22
2022-07-30T15:06:30.355Z,2.55
2022-07-30T15:08:57.186Z,2.20
2022-07-30T15:11:24.381Z,2.50
2022-07-30T15:13:52.695Z,2.60
2022-07-30T15:16:20.093Z,2.40
2022-07-30T15:18:47.185Z,2.25
2022-07-30T15:21:14.719Z,2.60
2022-07-30T15:23:42.015Z,2.22
2022-07-30T15:26:08.851Z,2.40
2022-07-30T15:28:35.804Z,2.17
2022-07-30T15:31:03.481Z,2.30
2022-07-30T15:33:30.537Z,2.28
2022-07-30T15:36:03.476Z,2.38
2022-07-30T15:38:30.435Z,2.20
2022-07-30T15:40:57.252Z,2.35
2022-07-30T15:43:24.068Z,2.40
2022-07-30T15:45:55.590Z,2.33
2022-07-30T15:48:24.646Z,2.80
2022-07-30T15:51:02.754Z,2.67
2022-07-30T15:53:31.033Z,2.40
2022-07-30T15:55:59.024Z,2.15
2022-07-30T15:58:25.921Z,2.30
2022-07-30T16:00:52.933Z,2.38
2022-07-30T16:03:19.952Z,2.33
2022-07-30T16:05:52.417Z,2.35
2022-07-30T16:08:20.797Z,2.42
2022-07-30T16:10:48.301Z,2.45
2022-07-30T16:13:15.916Z,2.40
2022-07-30T16:15:42.749Z,2.10
2022-07-30T16:18:10.468Z,2.28
2022-07-30T16:20:37.568Z,2.42
2022-07-30T16:23:06.273Z,2.40
2022-07-30T16:25:37.277Z,2.28
2022-07-30T16:28:04.166Z,2.38
2022-07-30T16:30:31.200Z,2.08
2022-07-30T16:32:58.086Z,2.35
2022-07-30T16:35:25.030Z,2.00
2022-07-30T16:37:51.928Z,2.45
2022-07-30T16:40:18.952Z,2.30
2022-07-30T16:42:45.920Z,2.03
2022-07-30T16:45:12.908Z,2.40
2022-07-30T16:47:39.816Z,2.28
2022-07-30T16:50:08.103Z,2.25
2022-07-30T16:52:35.169Z,1.95
2022-07-30T16:55:02.208Z,2.33
2022-07-30T16:57:29.076Z,2.42
2022-07-30T16:59:55.992Z,2.10
2022-07-30T17:02:22.840Z,1.90
2022-07-30T17:04:49.755Z,2.40
2022-07-30T17:07:16.637Z,2.20
2022-07-30T17:09:43.463Z,2.13
2022-07-30T17:12:19.280Z,2.03
2022-07-30T17:14:52.325Z,2.05
2022-07-30T17:17:19.163Z,2.22
2022-07-30T17:19:46.019Z,2.40
2022-07-30T17:22:13.134Z,2.20
2022-07-30T17:24:40.151Z,1.98
2022-07-30T17:27:07.129Z,2.40
2022-07-30T17:29:33.984Z,2.00
2022-07-30T17:32:01.178Z,2.20
2022-07-30T17:34:28.224Z,2.08
2022-07-30T17:36:55.080Z,2.08
2022-07-30T17:40:26.912Z,2.30
2022-07-30T17:42:11.336Z,2.20
2022-07-30T17:44:39.531Z,2.28
2022-07-30T17:47:08.848Z,2.08
2022-07-30T17:49:39.477Z,2.15
2022-07-30T17:52:06.707Z,2.10
2022-07-30T17:54:33.601Z,2.03
2022-07-30T17:57:00.549Z,2.25
2022-07-30T17:59:27.376Z,2.00
2022-07-30T18:01:54.807Z,2.20
2022-07-30T18:04:21.714Z,2.30
2022-07-30T18:06:50.686Z,2.00
2022-07-30T18:09:17.761Z,2.10
2022-07-30T18:11:45.103Z,2.20
2022-07-30T18:14:12.090Z,2.20
2022-07-30T18:16:39.324Z,2.13
2022-07-30T18:19:06.325Z,2.00
2022-07-30T18:21:33.460Z,2.10
2022-07-30T18:24:00.335Z,2.20
2022-07-30T18:26:27.294Z,2.00
2022-07-30T18:28:54.187Z,1.90
2022-07-30T18:31:21.110Z,2.35
2022-07-30T18:33:49.300Z,2.28
2022-07-30T18:36:16.125Z,2.42
2022-07-30T18:38:43.089Z,2.40
2022-07-30T18:41:10.003Z,2.60
2022-07-30T18:43:48.180Z,2.50
2022-07-30T18:46:15.914Z,2.35
2022-07-30T18:48:43.139Z,2.50
2022-07-30T18:51:13.823Z,2.30
2022-07-30T18:53:42.085Z,2.58
2022-07-30T18:56:09.295Z,2.25
2022-07-30T18:58:37.930Z,2.58
2022-07-30T19:01:05.186Z,2.20
2022-07-30T19:03:32.175Z,2.28
2022-07-30T19:05:59.002Z,2.25
2022-07-30T19:08:25.854Z,2.30
2022-07-30T19:10:52.743Z,2.33
2022-07-30T19:13:19.791Z,2.25
2022-07-30T19:15:46.667Z,2.20
2022-07-30T19:18:13.542Z,2.28
2022-07-30T19:20:40.439Z,2.42
2022-07-30T19:23:08.033Z,2.40
2022-07-30T19:25:36.690Z,2.45
2022-07-30T19:28:05.118Z,2.50
2022-07-30T19:30:32.904Z,2.40
2022-07-30T19:33:18.145Z,2.40
2022-07-30T19:35:45.716Z,2.15
2022-07-30T19:38:21.503Z,2.30
2022-07-30T19:40:49.292Z,2.50
2022-07-30T19:43:16.374Z,2.25
2022-07-30T19:45:46.667Z,2.30
2022-07-30T19:48:15.470Z,2.05
2022-07-30T19:51:00.800Z,2.33
2022-07-30T19:53:31.180Z,2.40
2022-07-30T19:56:03.295Z,2.40
2022-07-30T19:58:30.993Z,2.10
2022-07-30T20:00:57.872Z,2.30
2022-07-30T20:03:31.668Z,2.17
2022-07-30T20:06:00.096Z,2.33
2022-07-30T20:08:30.132Z,2.78
2022-07-30T20:10:59.131Z,1.77
2022-07-30T20:13:44.437Z,2.40
2022-07-30T20:16:13.903Z,2.10
2022-07-30T20:18:42.132Z,2.30
2022-07-30T20:21:14.679Z,2.30
2022-07-30T20:23:42.926Z,2.47
2022-07-30T20:26:13.437Z,2.53
2022-07-30T20:28:47.666Z,2.50
2022-07-30T20:31:19.924Z,2.45
2022-07-30T20:33:50.116Z,2.35
2022-07-30T20:36:18.437Z,2.33
2022-07-30T20:38:47.061Z,2.10
2022-07-30T20:41:14.790Z,2.50
2022-07-30T20:43:51.634Z,2.35
2022-07-30T20:46:20.356Z,2.92
2022-07-30T20:48:47.275Z,2.45
2022-07-30T20:51:14.712Z,2.55
2022-07-30T20:53:45.209Z,2.47
2022-07-30T20:56:13.258Z,2.40
2022-07-30T20:58:40.913Z,2.50
2022-07-30T21:01:07.885Z,3.00
2022-07-30T21:03:35.910Z,2.63
2022-07-30T21:06:03.475Z,2.72
2022-07-30T21:08:31.490Z,2.72
2022-07-30T21:11:00.223Z,2.92
2022-07-30T21:13:27.259Z,2.78
2022-07-30T21:16:01.773Z,2.42
2022-07-30T21:18:30.859Z,2.88
2022-07-30T21:20:57.899Z,2.55
2022-07-30T21:23:25.976Z,2.60
2022-07-30T21:26:00.669Z,2.63
2022-07-30T21:28:35.624Z,2.90
2022-07-30T21:33:53.069Z,3.05
2022-07-30T21:36:27.340Z,2.90
2022-07-30T21:38:56.093Z,2.90
2022-07-30T21:41:37.686Z,2.88
2022-07-30T21:44:07.655Z,2.63
2022-07-30T21:46:34.622Z,2.65
2022-07-30T21:49:05.279Z,2.70
2022-07-30T21:51:34.950Z,2.67
2022-07-30T21:54:06.978Z,3.08
2022-07-30T21:56:34.444Z,2.88
2022-07-30T21:59:02.492Z,2.88
2022-07-30T22:01:33.126Z,2.80
2022-07-30T22:04:09.145Z,3.08
2022-07-30T22:06:38.583Z,2.85
2022-07-30T22:09:19.264Z,2.78
2022-07-30T22:11:55.844Z,3.30
2022-07-30T22:14:23.175Z,3.15
2022-07-30T22:16:52.539Z,2.97
2022-07-30T22:19:25.882Z,2.78
2022-07-30T22:21:53.820Z,3.15
2022-07-30T22:24:28.908Z,3.10
2022-07-30T22:27:10.697Z,3.20
2022-07-30T22:29:43.092Z,3.20
2022-07-30T22:32:11.942Z,2.90
2022-07-30T22:34:38.855Z,2.70
2022-07-30T22:37:12.431Z,2.90
2022-07-30T22:39:51.503Z,2.78
2022-07-30T22:42:18.875Z,3.20
2022-07-30T22:44:47.572Z,2.47
2022-07-30T22:47:20.950Z,2.63
2022-07-30T22:49:52.027Z,2.72
2022-07-30T22:52:24.630Z,2.97
2022-07-30T22:54:57.844Z,2.97
2022-07-30T22:57:28.090Z,2.50
2022-07-30T22:59:57.722Z,2.80
2022-07-30T23:02:27.822Z,2.80
2022-07-30T23:04:56.401Z,2.50
2022-07-30T23:07:23.581Z,2.90
2022-07-30T23:10:03.249Z,2.85
2022-07-30T23:12:35.499Z,3.00
2022-07-30T23:15:04.103Z,2.65
2022-07-30T23:17:30.916Z,2.55
2022-07-30T23:19:57.808Z,2.80
2022-07-30T23:22:25.690Z,2.85
2022-07-30T23:24:52.541Z,2.92
2022-07-30T23:27:19.501Z,2.72
2022-07-30T23:29:46.382Z,2.78
2022-07-30T23:32:13.282Z,2.78
2022-07-30T23:34:40.087Z,2.88
2022-07-30T23:37:10.586Z,2.67
2022-07-30T23:39:39.852Z,2.50
2022-07-30T23:42:07.179Z,3.03
2022-07-30T23:44:37.106Z,2.80
2022-07-30T23:47:04.724Z,2.78
2022-07-30T23:49:32.015Z,2.70
2022-07-30T23:51:59.772Z,2.55
2022-07-30T23:54:28.789Z,2.70
2022-07-30T23:56:56.257Z,2.63
2022-07-30T23:59:24.216Z,2.88
